createdAt,value
2018-12-03T00:00:00.880Z,66.85
2018-12-03T00:02:33.966Z,65.98
2018-12-03T00:05:06.431Z,66.17
2018-12-03T00:07:38.757Z,66.70
2018-12-03T00:10:11.551Z,66.71
2018-12-03T00:12:43.619Z,66.62
2018-12-03T00:15:15.681Z,66.73
2018-12-03T00:17:47.954Z,66.28
2018-12-03T00:20:20.226Z,66.20
2018-12-03T00:22:52.421Z,66.78
2018-12-03T00:25:24.476Z,67.21
2018-12-03T00:27:56.623Z,67.58
2018-12-03T00:30:28.827Z,67.71
2018-12-03T00:33:00.987Z,67.92
2018-12-03T00:35:33.505Z,67.21
2018-12-03T00:38:05.625Z,67.63
2018-12-03T00:40:37.724Z,67.20
2018-12-03T00:43:09.801Z,67.15
2018-12-03T00:45:41.828Z,67.55
2018-12-03T00:48:13.726Z,67.89
2018-12-03T00:50:45.394Z,67.24
2018-12-03T00:53:17.453Z,67.33
2018-12-03T00:55:49.646Z,67.12
2018-12-03T00:58:21.918Z,67.28
2018-12-03T01:00:53.550Z,67.15
2018-12-03T01:03:25.714Z,67.54
2018-12-03T01:05:58.392Z,67.61
2018-12-03T01:08:30.391Z,67.02
2018-12-03T01:11:02.997Z,67.65
2018-12-03T01:13:34.800Z,67.20
2018-12-03T01:16:06.845Z,67.81
2018-12-03T01:18:40.271Z,67.99
2018-12-03T01:21:12.047Z,68.03
2018-12-03T01:23:44.190Z,68.06
2018-12-03T01:26:15.817Z,67.46
2018-12-03T01:28:47.659Z,67.68
2018-12-03T01:31:21.693Z,67.64
2018-12-03T01:33:54.004Z,68.27
2018-12-03T01:36:26.228Z,68.14
2018-12-03T01:38:58.134Z,67.58
2018-12-03T01:41:29.873Z,67.74
2018-12-03T01:44:01.939Z,68.58
2018-12-03T01:46:33.718Z,68.14
2018-12-03T01:49:05.664Z,67.86
2018-12-03T01:51:37.769Z,67.80
2018-12-03T01:54:09.830Z,67.50
2018-12-03T01:56:44.332Z,67.83
2018-12-03T01:59:16.300Z,67.91
2018-12-03T02:01:48.205Z,68.03
2018-12-03T02:04:19.957Z,67.95
2018-12-03T02:06:52.144Z,60.15
2018-12-03T02:09:24.235Z,59.53
2018-12-03T02:11:56.033Z,59.52
2018-12-03T02:14:28.243Z,60.06
2018-12-03T02:17:00.091Z,60.39
2018-12-03T02:19:33.068Z,60.83
2018-12-03T02:22:04.889Z,59.82
2018-12-03T02:24:37.136Z,59.52
2018-12-03T02:27:09.434Z,59.33
2018-12-03T02:29:41.521Z,59.93
2018-12-03T02:32:13.210Z,59.11
2018-12-03T02:34:45.347Z,59.46
2018-12-03T02:37:17.567Z,59.43
2018-12-03T02:39:49.332Z,59.49
2018-12-03T02:42:21.157Z,59.24
2018-12-03T02:44:52.895Z,58.76
2018-12-03T02:47:24.348Z,59.38
2018-12-03T02:49:56.055Z,59.61
2018-12-03T02:52:28.096Z,59.39
2018-12-03T02:55:00.182Z,59.37
2018-12-03T02:57:32.030Z,58.88
2018-12-03T03:00:04.106Z,59.61
2018-12-03T03:02:36.041Z,59.08
2018-12-03T03:05:09.950Z,58.76
2018-12-03T03:07:41.926Z,59.37
2018-12-03T03:10:15.769Z,58.74
2018-12-03T03:12:48.042Z,60.13
2018-12-03T03:15:19.965Z,60.53
2018-12-03T03:17:52.750Z,60.21
2018-12-03T03:20:25.326Z,59.92
2018-12-03T03:22:57.109Z,59.29
2018-12-03T03:25:29.348Z,59.25
2018-12-03T03:28:01.504Z,58.85
2018-12-03T03:30:33.419Z,57.90
2018-12-03T03:33:05.472Z,58.24
2018-12-03T03:35:37.688Z,57.88
2018-12-03T03:38:10.904Z,57.42
2018-12-03T03:40:42.787Z,57.86
2018-12-03T03:43:14.531Z,57.37
2018-12-03T03:45:46.588Z,57.08
2018-12-03T03:48:18.717Z,57.42
2018-12-03T03:50:50.602Z,56.94
2018-12-03T03:53:22.401Z,57.17
2018-12-03T03:55:54.240Z,57.46
2018-12-03T03:58:26.224Z,57.46
2018-12-03T04:00:57.985Z,57.00
2018-12-03T04:03:29.602Z,56.18
2018-12-03T04:06:01.676Z,56.52
2018-12-03T04:08:33.961Z,56.24
2018-12-03T04:11:05.723Z,57.13
2018-12-03T04:13:37.628Z,56.67
2018-12-03T04:16:09.674Z,56.67
2018-12-03T04:18:41.849Z,56.52
2018-12-03T04:21:14.137Z,57.14
2018-12-03T04:23:46.379Z,56.67
2018-12-03T04:26:18.144Z,56.69
2018-12-03T04:28:50.029Z,57.20
2018-12-03T04:31:21.960Z,56.90
2018-12-03T04:33:53.840Z,57.23
2018-12-03T04:36:25.904Z,57.03
2018-12-03T04:38:58.215Z,57.64
2018-12-03T04:41:30.608Z,57.25
2018-12-03T04:44:02.608Z,58.37
2018-12-03T04:46:34.264Z,57.79
2018-12-03T04:49:06.106Z,54.94
2018-12-03T04:51:37.999Z,56.86
2018-12-03T04:54:10.073Z,56.72
2018-12-03T04:56:41.912Z,57.30
2018-12-03T04:59:13.688Z,57.00
2018-12-03T05:01:45.528Z,56.00
2018-12-03T05:04:16.979Z,56.34
2018-12-03T05:06:49.629Z,54.02
2018-12-03T05:09:22.127Z,53.67
2018-12-03T05:11:54.169Z,52.76
2018-12-03T05:14:25.582Z,53.45
2018-12-03T05:16:57.412Z,52.35
2018-12-03T05:19:29.302Z,52.25
2018-12-03T05:22:00.820Z,53.05
2018-12-03T05:24:32.693Z,51.51
2018-12-03T05:27:04.427Z,54.34
2018-12-03T05:29:36.017Z,51.56
2018-12-03T05:32:09.125Z,50.25
2018-12-03T05:34:40.813Z,50.17
2018-12-03T05:37:12.698Z,49.11
2018-12-03T05:39:45.275Z,49.51
2018-12-03T05:42:17.044Z,48.90
2018-12-03T05:44:48.865Z,48.88
2018-12-03T05:47:20.558Z,48.55
2018-12-03T05:49:52.149Z,48.15
2018-12-03T05:52:23.644Z,48.52
2018-12-03T05:54:55.145Z,47.93
2018-12-03T05:57:26.701Z,47.07
2018-12-03T05:59:58.400Z,47.57
2018-12-03T06:02:29.986Z,48.32
2018-12-03T06:05:01.715Z,48.43
2018-12-03T06:07:33.326Z,47.92
2018-12-03T06:10:05.988Z,48.06
2018-12-03T06:12:37.362Z,48.01
2018-12-03T06:15:11.565Z,47.89
2018-12-03T06:17:43.138Z,47.25
2018-12-03T06:20:17.709Z,46.79
2018-12-03T06:22:49.881Z,47.46
2018-12-03T06:25:22.719Z,46.94
2018-12-03T06:27:54.283Z,48.41
2018-12-03T06:30:26.968Z,47.02
2018-12-03T06:32:58.345Z,46.29
2018-12-03T06:35:29.902Z,46.73
2018-12-03T06:38:01.276Z,46.12
2018-12-03T06:40:34.548Z,45.00
2018-12-03T06:43:06.051Z,45.27
2018-12-03T06:45:37.806Z,45.28
2018-12-03T06:48:17.220Z,44.97
2018-12-03T06:50:48.915Z,45.52
2018-12-03T06:53:20.438Z,44.37
2018-12-03T06:55:52.035Z,42.66
2018-12-03T06:58:23.507Z,42.96
2018-12-03T07:00:54.979Z,43.07
2018-12-03T07:03:26.522Z,44.80
2018-12-03T07:05:58.119Z,45.70
2018-12-03T07:08:30.636Z,45.69
2018-12-03T07:11:02.907Z,44.66
2018-12-03T07:13:34.345Z,44.85
2018-12-03T07:16:05.924Z,43.60
2018-12-03T07:18:38.283Z,46.14
2018-12-03T07:21:09.873Z,44.28
2018-12-03T07:23:43.053Z,43.11
2018-12-03T07:26:15.739Z,42.12
2018-12-03T07:28:47.207Z,41.56
2018-12-03T07:31:19.139Z,42.45
2018-12-03T07:33:50.757Z,41.50
2018-12-03T07:36:22.383Z,43.38
2018-12-03T07:38:53.870Z,43.02
2018-12-03T07:41:27.008Z,42.66
2018-12-03T07:43:58.547Z,43.35
2018-12-03T07:46:30.351Z,42.64
2018-12-03T07:49:01.873Z,42.29
2018-12-03T07:51:33.712Z,43.04
2018-12-03T07:54:05.302Z,43.99
2018-12-03T07:56:36.931Z,42.38
2018-12-03T07:59:08.751Z,43.89
2018-12-03T08:01:40.397Z,43.43
2018-12-03T08:04:12.059Z,44.39
2018-12-03T08:06:43.758Z,44.49
2018-12-03T08:09:15.371Z,42.78
2018-12-03T08:11:47.947Z,42.82
2018-12-03T08:14:20.613Z,43.83
2018-12-03T08:16:52.678Z,41.67
2018-12-03T08:19:28.320Z,43.37
2018-12-03T08:22:03.350Z,43.48
2018-12-03T08:24:35.098Z,42.32
2018-12-03T08:27:07.057Z,42.21
2018-12-03T08:29:39.722Z,41.12
2018-12-03T08:32:11.295Z,41.58
2018-12-03T08:34:42.706Z,41.97
2018-12-03T08:37:15.034Z,41.97
2018-12-03T08:39:46.753Z,40.52
2018-12-03T08:42:19.411Z,40.49
2018-12-03T08:44:51.912Z,40.33
2018-12-03T08:47:23.639Z,40.68
2018-12-03T08:49:55.683Z,41.60
2018-12-03T08:52:27.694Z,41.53
2018-12-03T08:55:00.180Z,44.10
2018-12-03T08:57:32.538Z,44.15
2018-12-03T09:00:04.772Z,45.49
2018-12-03T09:02:36.328Z,44.32
2018-12-03T09:05:09.046Z,42.27
2018-12-03T09:07:42.806Z,41.01
2018-12-03T09:10:17.444Z,40.88
2018-12-03T09:12:49.774Z,41.10
2018-12-03T09:15:21.199Z,41.28
2018-12-03T09:17:52.929Z,41.01
2018-12-03T09:20:25.275Z,41.16
2018-12-03T09:22:57.557Z,39.02
2018-12-03T09:25:29.284Z,38.38
2018-12-03T09:28:01.084Z,39.61
2018-12-03T09:30:33.084Z,40.05
2018-12-03T09:33:04.924Z,40.61
2018-12-03T09:35:37.258Z,40.53
2018-12-03T09:38:11.308Z,39.97
2018-12-03T09:40:42.847Z,42.13
2018-12-03T09:43:15.902Z,39.57
2018-12-03T09:45:47.774Z,37.47
2018-12-03T09:48:19.356Z,39.12
2018-12-03T09:50:50.870Z,38.92
2018-12-03T09:53:22.639Z,38.22
2018-12-03T09:55:54.440Z,39.45
2018-12-03T09:58:26.581Z,37.06
2018-12-03T10:00:58.821Z,37.76
2018-12-03T10:03:35.561Z,38.52
2018-12-03T10:06:15.986Z,39.05
2018-12-03T10:08:48.057Z,39.40
2018-12-03T10:11:19.673Z,40.80
2018-12-03T10:13:52.571Z,42.67
2018-12-03T10:16:24.625Z,43.19
2018-12-03T10:19:00.333Z,43.27
2018-12-03T10:21:28.419Z,43.74
2018-12-03T10:24:00.209Z,43.31
2018-12-03T10:26:33.110Z,43.46
2018-12-03T10:29:05.334Z,43.66
2018-12-03T10:31:37.405Z,43.57
2018-12-03T10:34:12.142Z,44.06
2018-12-03T10:36:51.586Z,43.47
2018-12-03T10:39:28.625Z,44.06
2018-12-03T10:42:09.137Z,43.20
2018-12-03T10:44:41.807Z,43.74
2018-12-03T10:47:13.915Z,44.77
2018-12-03T10:49:45.978Z,43.69
2018-12-03T10:52:22.485Z,43.97
2018-12-03T10:54:54.705Z,44.79
2018-12-03T10:57:26.626Z,44.99
2018-12-03T10:59:59.216Z,44.25
2018-12-03T11:02:38.237Z,46.40
2018-12-03T11:05:15.435Z,46.58
2018-12-03T11:07:47.974Z,46.76
2018-12-03T11:10:20.180Z,47.08
2018-12-03T11:12:53.827Z,47.29
2018-12-03T11:15:26.247Z,47.56
2018-12-03T11:17:57.864Z,48.90
2018-12-03T11:20:30.790Z,48.58
2018-12-03T11:23:03.669Z,48.18
2018-12-03T11:25:37.232Z,48.63
2018-12-03T11:28:11.114Z,48.69
2018-12-03T11:30:51.804Z,48.83
2018-12-03T11:33:28.260Z,49.73
2018-12-03T11:36:01.426Z,49.85
2018-12-03T11:38:39.204Z,50.00
2018-12-03T11:41:11.172Z,49.39
2018-12-03T11:43:42.816Z,50.10
2018-12-03T11:46:17.678Z,50.31
2018-12-03T11:48:49.351Z,50.48
2018-12-03T11:51:21.414Z,50.26
2018-12-03T11:53:55.556Z,50.52
2018-12-03T11:56:27.526Z,51.20
2018-12-03T11:58:59.470Z,51.04
2018-12-03T12:01:31.393Z,50.90
2018-12-03T12:04:04.313Z,51.33
2018-12-03T12:06:36.162Z,51.72
2018-12-03T12:09:12.208Z,52.47
2018-12-03T12:11:44.215Z,52.87
2018-12-03T12:14:21.659Z,52.90
2018-12-03T12:16:53.763Z,52.48
2018-12-03T12:19:25.340Z,52.87
2018-12-03T12:21:57.346Z,53.74
2018-12-03T12:24:30.894Z,53.77
2018-12-03T12:27:02.728Z,53.45
2018-12-03T12:29:39.074Z,54.15
2018-12-03T12:32:10.916Z,53.94
2018-12-03T12:34:43.616Z,54.60
2018-12-03T12:37:15.512Z,54.77
2018-12-03T12:39:47.407Z,54.82
2018-12-03T12:42:19.397Z,54.85
2018-12-03T12:44:51.422Z,54.49
2018-12-03T12:47:24.262Z,54.16
2018-12-03T12:50:00.468Z,54.62
2018-12-03T12:52:32.709Z,55.13
2018-12-03T12:55:04.188Z,54.31
2018-12-03T12:57:35.904Z,54.13
2018-12-03T13:00:13.028Z,54.23
2018-12-03T13:02:46.379Z,55.03
2018-12-03T13:05:18.145Z,55.46
2018-12-03T13:07:49.615Z,54.52
2018-12-03T13:10:21.190Z,55.11
2018-12-03T13:12:54.094Z,54.40
2018-12-03T13:15:26.042Z,54.56
2018-12-03T13:17:58.586Z,54.18
2018-12-03T13:51:22.973Z,54.55
2018-12-03T13:53:55.376Z,55.74
2018-12-03T13:56:27.175Z,55.79
2018-12-03T13:58:59.313Z,55.75
2018-12-03T14:01:31.150Z,55.94
2018-12-03T14:04:08.391Z,55.15
2018-12-03T14:06:45.553Z,55.08
2018-12-03T14:11:36.467Z,55.27
2018-12-03T14:14:23.103Z,55.49
2018-12-03T14:17:02.253Z,54.72
2018-12-03T14:19:35.021Z,54.64
2018-12-03T14:22:14.695Z,54.35
2018-12-03T14:24:47.571Z,54.93
2018-12-03T14:27:19.232Z,55.51
2018-12-03T14:29:51.470Z,55.53
2018-12-03T14:32:23.375Z,54.93
2018-12-03T14:34:56.174Z,55.83
2018-12-03T14:37:28.928Z,56.17
2018-12-03T14:40:00.997Z,55.94
2018-12-03T14:42:33.457Z,56.71
2018-12-03T14:45:05.901Z,56.26
2018-12-03T14:47:38.099Z,56.84
2018-12-03T14:50:12.207Z,57.05
2018-12-03T14:52:44.051Z,57.42
2018-12-03T14:55:16.984Z,57.13
2018-12-03T14:57:49.282Z,56.73
2018-12-03T15:00:21.333Z,57.70
2018-12-03T15:02:53.170Z,58.08
2018-12-03T15:05:25.240Z,57.51
2018-12-03T15:07:56.765Z,57.25
2018-12-03T15:10:28.536Z,57.54
2018-12-03T15:13:00.365Z,58.53
2018-12-03T15:15:32.050Z,58.47
2018-12-03T15:18:03.582Z,58.36
2018-12-03T15:20:35.483Z,57.91
2018-12-03T15:23:07.584Z,58.05
2018-12-03T15:25:39.966Z,58.01
2018-12-03T15:28:15.453Z,58.10
2018-12-03T15:30:46.989Z,57.29
2018-12-03T15:33:18.658Z,57.90
2018-12-03T15:35:50.272Z,58.93
2018-12-03T15:38:21.763Z,58.92
2018-12-03T15:40:53.835Z,58.73
2018-12-03T15:43:26.338Z,59.08
2018-12-03T15:45:58.437Z,58.80
2018-12-03T15:48:30.304Z,59.68
2018-12-03T15:51:02.304Z,59.61
2018-12-03T15:53:34.471Z,59.64
2018-12-03T15:56:07.272Z,60.04
2018-12-03T15:58:38.933Z,60.12
2018-12-03T16:01:14.436Z,59.85
2018-12-03T16:03:44.877Z,59.79
2018-12-03T16:06:17.149Z,59.76
2018-12-03T16:08:48.798Z,60.23
2018-12-03T16:11:20.601Z,60.44
2018-12-03T16:13:52.157Z,60.83
2018-12-03T16:16:24.103Z,60.48
2018-12-03T16:18:56.041Z,60.59
2018-12-03T16:21:27.798Z,60.08
2018-12-03T16:23:59.761Z,60.03
2018-12-03T16:26:31.808Z,60.51
2018-12-03T16:29:03.728Z,60.51
2018-12-03T16:31:36.893Z,60.45
2018-12-03T16:34:08.808Z,60.49
2018-12-03T16:36:40.647Z,60.20
2018-12-03T16:39:12.610Z,60.75
2018-12-03T16:41:44.556Z,60.45
2018-12-03T16:44:16.618Z,60.66
2018-12-03T16:46:49.124Z,60.83
2018-12-03T16:49:21.178Z,60.79
2018-12-03T16:51:53.179Z,60.67
2018-12-03T16:54:24.692Z,60.91
2018-12-03T16:56:57.721Z,61.48
2018-12-03T16:59:29.298Z,62.20
2018-12-03T17:02:01.302Z,61.65
2018-12-03T17:04:33.197Z,61.76
2018-12-03T17:07:05.122Z,62.28
2018-12-03T17:09:36.808Z,62.38
2018-12-03T17:12:11.341Z,62.32
2018-12-03T17:14:43.127Z,62.63
2018-12-03T17:17:16.730Z,62.30
2018-12-03T17:19:54.858Z,62.38
2018-12-03T17:23:03.664Z,62.72
2018-12-03T17:25:35.184Z,63.24
2018-12-03T17:28:07.423Z,62.52
2018-12-03T17:30:39.118Z,62.47
2018-12-03T17:33:10.812Z,62.75
2018-12-03T17:38:43.731Z,63.05
2018-12-03T17:41:15.466Z,63.17
2018-12-03T17:43:48.769Z,63.40
2018-12-03T17:46:21.977Z,63.61
2018-12-03T17:48:54.896Z,64.10
2018-12-03T17:51:27.292Z,63.71
2018-12-03T17:54:03.657Z,63.93
2018-12-03T17:56:36.759Z,63.76
2018-12-03T17:59:09.778Z,64.22
2018-12-03T18:01:42.288Z,63.91
2018-12-03T18:04:15.905Z,64.17
2018-12-03T18:06:49.740Z,64.97
2018-12-03T18:09:22.565Z,64.67
2018-12-03T18:11:54.226Z,64.22
2018-12-03T18:14:27.329Z,64.64
2018-12-03T18:16:59.963Z,64.52
2018-12-03T18:19:33.711Z,64.74
2018-12-03T18:22:07.676Z,64.90
2018-12-03T18:24:43.701Z,65.13
2018-12-03T18:27:15.505Z,64.43
2018-12-03T18:29:49.107Z,63.72
2018-12-03T18:32:30.397Z,64.49
2018-12-03T18:35:11.894Z,65.20
2018-12-03T18:37:45.613Z,65.88
2018-12-03T18:40:20.421Z,65.90
2018-12-03T18:42:54.140Z,65.68
2018-12-03T18:45:26.019Z,65.76
2018-12-03T18:47:57.441Z,65.73
2018-12-03T18:50:33.065Z,66.06
2018-12-03T18:53:10.505Z,66.01
2018-12-03T18:55:42.068Z,66.41
2018-12-03T18:58:15.878Z,66.72
2018-12-03T19:00:48.956Z,67.36
2018-12-03T19:03:20.529Z,66.28
2018-12-03T19:05:53.066Z,66.54
2018-12-03T19:08:24.870Z,66.69
2018-12-03T19:10:57.924Z,66.90
2018-12-03T19:13:30.667Z,66.07
2018-12-03T19:16:02.756Z,66.04
2018-12-03T19:18:34.604Z,66.13
2018-12-03T19:21:06.549Z,66.31
2018-12-03T19:23:38.776Z,66.99
2018-12-03T19:26:10.513Z,66.63
2018-12-03T19:28:42.904Z,67.05
2018-12-03T19:31:15.080Z,67.91
2018-12-03T19:33:49.091Z,66.82
2018-12-03T19:36:25.839Z,66.23
2018-12-03T19:38:57.714Z,67.43
2018-12-03T19:41:29.792Z,67.19
2018-12-03T19:44:02.815Z,67.25
2018-12-03T19:46:35.380Z,67.84
2018-12-03T19:49:08.152Z,67.89
2018-12-03T19:51:41.661Z,68.23
2018-12-03T19:54:14.794Z,68.09
2018-12-03T19:56:47.476Z,67.94
2018-12-03T19:59:19.129Z,67.24
2018-12-03T20:01:51.454Z,67.76
2018-12-03T20:04:28.128Z,68.62
2018-12-03T20:06:59.806Z,69.06
2018-12-03T20:09:31.146Z,68.76
2018-12-03T20:12:02.635Z,68.11
2018-12-03T20:14:34.023Z,68.04
2018-12-03T20:17:09.174Z,67.69
2018-12-03T20:19:43.880Z,68.57
2018-12-03T20:22:18.557Z,67.89
2018-12-03T20:24:50.250Z,67.60
2018-12-03T20:27:32.238Z,67.76
2018-12-03T20:31:14.268Z,68.30
2018-12-03T20:34:24.089Z,68.91
2018-12-03T20:37:06.794Z,69.17
2018-12-03T20:39:50.750Z,69.33
2018-12-03T20:42:26.942Z,68.53
2018-12-03T20:45:16.676Z,68.93
2018-12-03T20:47:51.724Z,70.30
2018-12-03T20:50:35.361Z,69.69
2018-12-03T20:53:10.708Z,69.68
2018-12-03T20:55:45.388Z,69.84
2018-12-03T20:58:17.303Z,70.48
2018-12-03T21:00:49.056Z,69.54
2018-12-03T21:03:22.401Z,68.54
2018-12-03T21:05:55.245Z,68.73
2018-12-03T21:08:32.747Z,68.45
2018-12-03T21:11:05.637Z,67.50
2018-12-03T21:13:39.661Z,68.24
2018-12-03T21:16:11.609Z,69.10
2018-12-03T21:18:43.584Z,68.93
2018-12-03T21:21:15.560Z,68.59
2018-12-03T21:23:48.241Z,68.06
2018-12-03T21:26:19.940Z,68.62
2018-12-03T21:28:51.911Z,69.78
2018-12-03T21:31:24.631Z,70.11
2018-12-03T21:33:56.203Z,70.02
2018-12-03T21:36:29.470Z,70.02
2018-12-03T21:39:02.502Z,70.21
2018-12-03T21:41:36.964Z,70.03
2018-12-03T21:44:08.684Z,70.58
2018-12-03T21:46:40.789Z,69.99
2018-12-03T21:49:12.760Z,69.79
2018-12-03T21:51:45.480Z,69.83
2018-12-03T21:54:22.235Z,69.46
2018-12-03T21:56:54.373Z,69.00
2018-12-03T21:59:27.477Z,69.14
2018-12-03T22:02:01.537Z,68.52
2018-12-03T22:04:34.302Z,69.20
2018-12-03T22:07:17.135Z,69.29
2018-12-03T22:09:50.066Z,69.45
2018-12-03T22:12:25.376Z,69.13
2018-12-03T22:15:01.479Z,69.83
2018-12-03T22:17:36.877Z,69.28
2018-12-03T22:20:15.245Z,69.35
2018-12-03T22:22:47.244Z,69.28
2018-12-03T22:25:20.945Z,68.62
2018-12-03T22:27:58.749Z,69.16
2018-12-03T22:30:30.797Z,68.92
2018-12-03T22:33:07.538Z,69.37
2018-12-03T22:35:39.203Z,69.24
2018-12-03T22:38:11.467Z,69.65
2018-12-03T22:40:45.055Z,69.57
2018-12-03T22:43:19.435Z,69.83
2018-12-03T22:45:57.104Z,69.91
2018-12-03T22:48:33.985Z,69.54
2018-12-03T22:51:08.031Z,69.51
2018-12-03T22:53:40.616Z,69.68
2018-12-03T22:56:12.994Z,69.90
2018-12-03T22:58:46.537Z,69.57
2018-12-03T23:01:25.136Z,69.17
2018-12-03T23:03:57.065Z,69.53
2018-12-03T23:06:29.985Z,69.42
2018-12-03T23:09:02.107Z,69.32
2018-12-03T23:11:36.173Z,68.97
2018-12-03T23:14:08.173Z,69.65
2018-12-03T23:16:40.892Z,69.25
2018-12-03T23:19:14.606Z,69.55
2018-12-03T23:21:47.749Z,68.97
2018-12-03T23:24:20.370Z,69.32
2018-12-03T23:26:53.202Z,69.69
2018-12-03T23:29:24.936Z,69.35
2018-12-03T23:31:56.979Z,69.24
2018-12-03T23:34:28.624Z,69.16
2018-12-03T23:37:04.343Z,69.14
2018-12-03T23:39:37.269Z,69.14
2018-12-03T23:42:09.079Z,69.12
2018-12-03T23:44:40.702Z,69.00
2018-12-03T23:47:13.904Z,69.41
2018-12-03T23:49:47.518Z,69.64
2018-12-03T23:52:19.544Z,68.87
2018-12-03T23:54:51.439Z,68.79
2018-12-03T23:57:23.616Z,68.59
2018-12-03T23:59:58.757Z,68.90
